Terminal Aerodrome Forecast
Issued by NWS Shreveport, LA

Home | Current Version | Previous Version | Text Only | Print | Product List | Glossary On
Versions: 1 2 3 4 5 6 7 8 9 10 11 12 13 14 15 16 17
000
FTUS44 KSHV 230900 AAA
TAFLFK
TAF AMD
KLFK 230928Z 2309/2406 13010KT P6SM BKN011 BKN090 OVC110
      TEMPO 2309/2312 5SM -RA BR BKN008 OVC011
     FM231200 18005KT 5SM BR OVC008
     FM231600 21008KT P6SM BKN015
     FM231800 22012G19KT P6SM BKN035
     FM232000 21014G21KT P6SM SKC
     FM240000 22010G18KT P6SM SKC=

USA.gov is the U.S. government's official web portal to all federal, state and local government web resources and services.